Time;durP1;ratioP1;P1;durP2;ratioP2;P2;SDS_P1;SDS_P2;PMS_P1;PMS_P2;Temp;Humidity;BMP_temperature;BMP_pressure;BME280_temperature;BME280_humidity;BME280_pressure;Samples;Min_cycle;Max_cycle;Signal;HPM_P1;HPM_P2
2021/03/03 00:00:13;;;;;;;41.90;22.00;;;;;;;8.18;63.17;102983.16;5033546;28;20025;-83
2021/03/03 00:02:40;;;;;;;37.65;21.27;;;;;;;8.14;63.04;102986.53;5033247;28;20490;-83
2021/03/03 00:05:07;;;;;;;35.80;20.15;;;;;;;8.12;63.24;102988.28;5033158;28;20025;-84
2021/03/03 00:07:33;;;;;;;38.92;21.30;;;;;;;8.08;63.60;102989.94;5033201;28;20021;-82
2021/03/03 00:10:00;;;;;;;41.80;19.83;;;;;;;8.06;63.50;102989.91;5031684;28;20392;-82
2021/03/03 00:12:27;;;;;;;38.13;20.60;;;;;;;8.04;63.54;102991.59;5033342;28;20025;-86
2021/03/03 00:14:53;;;;;;;44.72;22.05;;;;;;;8.03;63.61;103000.38;5033956;28;20544;-88
2021/03/03 00:17:20;;;;;;;36.88;19.88;;;;;;;8.00;64.05;103004.69;5035545;28;20032;-88
2021/03/03 00:19:46;;;;;;;43.85;23.42;;;;;;;7.99;64.13;103003.81;5036221;28;20030;-88
2021/03/03 00:22:12;;;;;;;42.05;21.25;;;;;;;7.99;63.58;103003.81;5034645;28;20104;-89
2021/03/03 00:24:39;;;;;;;40.53;21.38;;;;;;;7.98;63.42;103001.13;5035678;28;20032;-89
2021/03/03 00:27:06;;;;;;;32.00;18.50;;;;;;;7.97;63.80;103004.63;5036149;28;20033;-88
2021/03/03 00:29:34;;;;;;;33.78;18.70;;;;;;;7.97;63.86;103002.88;5038690;28;20056;-88
2021/03/03 00:32:00;;;;;;;35.22;19.13;;;;;;;7.95;63.69;102999.31;5035529;28;20033;-86
2021/03/03 00:34:28;;;;;;;42.42;20.88;;;;;;;7.92;63.65;103002.75;5034142;28;20122;-87
2021/03/03 00:36:54;;;;;;;43.60;22.58;;;;;;;7.90;63.88;102998.28;5034630;28;20104;-89
2021/03/03 00:39:21;;;;;;;44.67;23.05;;;;;;;7.90;64.03;103008.81;5034857;28;20034;-89
2021/03/03 00:41:48;;;;;;;34.47;19.83;;;;;;;7.91;63.81;103005.34;5033003;28;20033;-82
2021/03/03 00:44:14;;;;;;;43.97;21.55;;;;;;;7.89;64.03;103004.44;5033069;28;20136;-87
2021/03/03 00:46:41;;;;;;;41.78;21.23;;;;;;;7.87;64.14;103006.13;5032720;28;20304;-87
2021/03/03 00:49:07;;;;;;;39.75;22.02;;;;;;;7.85;64.00;103010.47;5033329;28;20044;-88
2021/03/03 00:51:34;;;;;;;39.22;20.40;;;;;;;7.82;63.98;103000.72;5033009;28;20499;-88
2021/03/03 00:54:00;;;;;;;46.00;22.70;;;;;;;7.82;64.23;103006.00;5032679;28;20048;-88
2021/03/03 00:56:27;;;;;;;36.80;22.55;;;;;;;7.81;64.16;103000.69;5033408;28;20365;-90
2021/03/03 00:58:53;;;;;;;38.08;20.67;;;;;;;7.80;63.88;103004.16;5035081;28;20072;-89
2021/03/03 01:01:20;;;;;;;41.33;21.40;;;;;;;7.75;64.24;103004.03;5034072;28;20101;-88
2021/03/03 01:03:47;;;;;;;45.47;22.63;;;;;;;7.77;63.87;103003.22;5031926;28;20025;-82
2021/03/03 01:06:14;;;;;;;48.33;24.65;;;;;;;7.76;64.07;103006.75;5034426;28;20041;-89
2021/03/03 01:08:41;;;;;;;52.50;26.33;;;;;;;7.76;64.07;103006.75;5035736;28;20549;-89
2021/03/03 01:11:08;;;;;;;40.63;22.25;;;;;;;7.73;64.34;103006.66;5032248;28;20029;-87
2021/03/03 01:13:48;;;;;;;42.38;21.70;;;;;;;7.74;64.28;103005.81;5031310;28;20048;-81
2021/03/03 01:16:15;;;;;;;46.20;25.65;;;;;;;7.70;64.29;103001.31;5032321;28;20053;-84
2021/03/03 01:18:56;;;;;;;45.05;22.50;;;;;;;7.69;64.40;102998.59;5035007;28;20097;-82
2021/03/03 01:21:24;;;;;;;48.92;24.13;;;;;;;7.66;64.45;102999.41;5035893;28;20037;-86
2021/03/03 01:23:50;;;;;;;52.15;24.98;;;;;;;7.64;64.50;102992.31;5036660;28;20032;-89
2021/03/03 01:26:17;;;;;;;48.53;26.67;;;;;;;7.60;64.41;102991.34;5040576;28;20117;-87
2021/03/03 01:28:43;;;;;;;42.88;22.65;;;;;;;7.59;64.25;102986.94;5039085;28;20018;-86
2021/03/03 01:31:10;;;;;;;45.95;24.25;;;;;;;7.57;64.17;102983.34;5036256;28;20033;-87
2021/03/03 01:33:36;;;;;;;49.15;24.35;;;;;;;7.54;64.42;102985.88;5039819;28;20025;-86
2021/03/03 01:36:03;;;;;;;44.35;23.60;;;;;;;7.52;64.38;102972.66;5040980;28;20029;-89
2021/03/03 01:38:29;;;;;;;47.47;24.08;;;;;;;7.50;64.34;102976.13;5039569;28;20034;-89
2021/03/03 01:40:56;;;;;;;48.33;23.63;;;;;;;7.49;64.38;102967.31;5037545;28;20488;-88
2021/03/03 01:43:29;;;;;;;43.60;24.38;;;;;;;7.50;64.44;102965.56;5038790;28;20036;-88
2021/03/03 01:45:56;;;;;;;44.38;24.35;;;;;;;7.44;64.63;102972.47;5039741;28;20033;-86
2021/03/03 01:48:22;;;;;;;48.30;24.42;;;;;;;7.42;64.56;102971.50;5039421;28;20080;-88
2021/03/03 01:50:49;;;;;;;43.05;22.38;;;;;;;7.39;64.50;102974.09;5040647;28;20132;-87
2021/03/03 01:53:17;;;;;;;46.58;24.92;;;;;;;7.39;64.45;102963.53;5038640;28;20033;-88
2021/03/03 01:55:44;;;;;;;49.08;24.58;;;;;;;7.37;64.68;102957.31;5042714;28;20100;-90
2021/03/03 01:58:11;;;;;;;43.25;23.52;;;;;;;7.39;64.74;102957.34;5039292;28;20112;-90
2021/03/03 02:00:37;;;;;;;42.42;23.05;;;;;;;7.38;64.45;102961.75;5036709;28;20048;-86
2021/03/03 02:03:05;;;;;;;44.30;22.42;;;;;;;7.38;64.61;102956.47;5037241;28;20037;-87
2021/03/03 02:05:31;;;;;;;52.40;25.42;;;;;;;7.36;64.50;102952.00;5037773;28;20103;-89
2021/03/03 02:08:06;;;;;;;47.45;25.02;;;;;;;7.37;64.51;102952.03;5045742;28;20033;-87
2021/03/03 02:11:12;;;;;;;43.95;23.15;;;;;;;7.41;64.25;102950.38;5053756;28;20029;-86
2021/03/03 02:13:45;;;;;;;53.83;26.27;;;;;;;7.34;64.46;102954.63;5037857;28;20049;-88
2021/03/03 02:16:13;;;;;;;40.00;22.08;;;;;;;7.29;64.61;102957.13;5036261;28;20068;-86
2021/03/03 02:18:41;;;;;;;41.58;22.13;;;;;;;7.27;64.58;102953.53;5035990;28;20045;-89
2021/03/03 02:21:36;;;;;;;48.88;24.02;;;;;;;7.31;64.43;102954.50;5034993;28;20037;-89
2021/03/03 02:26:56;;;;;;;48.25;23.30;;;;;;;7.22;64.53;102943.72;5070826;28;20467;-90
2021/03/03 02:29:26;;;;;;;49.47;25.00;;;;;;;7.21;64.70;102945.44;5050784;28;20033;-90
2021/03/03 02:31:54;;;;;;;54.88;27.58;;;;;;;7.18;64.71;102948.00;5049910;28;20029;-89
2021/03/03 02:34:23;;;;;;;45.92;22.45;;;;;;;7.18;64.82;102940.09;5031442;28;20405;-90
2021/03/03 02:36:51;;;;;;;48.40;24.77;;;;;;;7.18;64.90;102936.56;5021780;28;20034;-87
2021/03/03 02:39:22;;;;;;;39.45;23.02;;;;;;;7.19;64.85;102934.00;5036882;28;20026;-91
2021/03/03 02:41:53;;;;;;;53.92;24.15;;;;;;;7.15;64.88;102928.56;5034499;28;20030;-90
2021/03/03 02:44:20;;;;;;;43.80;23.55;;;;;;;7.13;64.82;102933.81;5048632;28;20060;-90
2021/03/03 02:46:47;;;;;;;46.75;24.02;;;;;;;7.10;64.88;102929.34;5054601;28;20036;-89
2021/03/03 02:49:18;;;;;;;39.55;21.80;;;;;;;7.12;64.92;102926.75;5051022;28;20029;-90
2021/03/03 02:51:44;;;;;;;46.35;22.02;;;;;;;7.07;65.00;102929.25;5047711;28;20029;-90
2021/03/03 02:54:12;;;;;;;41.17;22.98;;;;;;;7.06;64.99;102926.56;5044435;28;20057;-91
2021/03/03 02:56:39;;;;;;;40.17;21.67;;;;;;;7.03;64.93;102922.13;5044432;28;20052;-91
2021/03/03 02:59:27;;;;;;;47.70;24.00;;;;;;;7.10;64.88;102924.09;5044011;28;20056;-91
2021/03/03 03:01:57;;;;;;;39.10;18.98;;;;;;;7.00;65.10;102927.28;5035060;28;20049;-88
2021/03/03 03:04:27;;;;;;;29.27;17.85;;;;;;;6.99;65.20;102930.78;5043583;28;20026;-82
2021/03/03 03:06:56;;;;;;;39.17;18.45;;;;;;;6.97;65.09;102930.72;5019742;28;20065;-89
2021/03/03 03:09:24;;;;;;;34.92;18.75;;;;;;;6.96;65.14;102930.69;5029521;28;20065;-89
2021/03/03 03:11:53;;;;;;;38.15;19.85;;;;;;;6.95;65.21;102926.25;5028077;28;20121;-90
2021/03/03 03:14:25;;;;;;;35.78;18.85;;;;;;;6.95;65.41;102921.00;5035691;28;20037;-90
2021/03/03 03:16:52;;;;;;;51.53;24.75;;;;;;;6.93;65.27;102925.34;5035843;28;20033;-90
2021/03/03 03:19:25;;;;;;;39.60;21.08;;;;;;;6.94;65.47;102921.84;5035591;28;20029;-90
2021/03/03 03:21:52;;;;;;;47.20;23.92;;;;;;;6.92;65.25;102928.81;5013913;28;20496;-89
2021/03/03 03:24:22;;;;;;;39.70;19.45;;;;;;;6.88;65.43;102917.31;5032875;28;20021;-89
2021/03/03 03:26:49;;;;;;;39.65;20.30;;;;;;;6.87;65.25;102914.63;5019923;28;20524;-82
2021/03/03 03:29:16;;;;;;;41.45;21.02;;;;;;;6.84;65.45;102915.44;5024957;28;20057;-88
2021/03/03 03:31:44;;;;;;;41.38;19.88;;;;;;;6.84;65.27;102925.06;5044201;28;20033;-90
2021/03/03 03:34:12;;;;;;;47.15;22.75;;;;;;;6.83;65.27;102924.19;5030466;28;20485;-89
2021/03/03 03:36:40;;;;;;;42.05;22.60;;;;;;;6.76;65.63;102920.47;5024537;28;20061;-89
2021/03/03 03:39:10;;;;;;;39.75;20.83;;;;;;;6.80;65.42;102929.34;4996628;28;20058;-89
2021/03/03 03:41:37;;;;;;;52.03;21.45;;;;;;;6.75;65.47;102923.97;5016058;28;20025;-87
2021/03/03 03:44:07;;;;;;;40.15;21.30;;;;;;;6.75;65.53;102931.88;5018443;28;20421;-89
2021/03/03 03:46:34;;;;;;;47.83;21.15;;;;;;;6.72;65.64;102931.75;5024710;28;20362;-90
2021/03/03 03:49:00;;;;;;;45.10;21.48;;;;;;;6.73;65.74;102919.47;5024177;28;20034;-90
2021/03/03 03:51:28;;;;;;;52.63;23.65;;;;;;;6.72;65.53;102926.50;5001385;28;20026;-90
2021/03/03 03:53:54;;;;;;;39.00;19.95;;;;;;;6.71;65.58;102935.25;5019489;28;20037;-91
2021/03/03 03:56:21;;;;;;;36.78;19.80;;;;;;;6.69;65.61;102944.88;5023318;28;20168;-90
2021/03/03 03:58:47;;;;;;;41.15;19.95;;;;;;;6.69;65.58;102941.31;5016441;28;20043;-90
2021/03/03 04:01:14;;;;;;;38.53;21.27;;;;;;;6.69;65.69;102936.03;5020411;28;20030;-90
2021/03/03 04:03:40;;;;;;;42.45;19.13;;;;;;;6.69;65.71;102942.22;5031976;28;20485;-90
2021/03/03 04:06:07;;;;;;;40.65;20.25;;;;;;;6.69;65.88;102936.97;5023723;28;20095;-90
2021/03/03 04:08:33;;;;;;;55.58;24.30;;;;;;;6.68;65.90;102929.91;5008113;28;20029;-90
2021/03/03 04:10:59;;;;;;;46.75;21.33;;;;;;;6.70;66.07;102943.09;5014959;28;20493;-90
2021/03/03 04:13:26;;;;;;;49.30;22.13;;;;;;;6.69;66.12;102936.97;5015997;28;20510;-90
2021/03/03 04:15:52;;;;;;;55.15;24.55;;;;;;;6.70;65.96;102937.84;5005657;28;20157;-90
2021/03/03 04:18:18;;;;;;;45.55;23.17;;;;;;;6.72;66.10;102937.03;5023858;28;20029;-90
2021/03/03 04:20:45;;;;;;;47.05;21.38;;;;;;;6.73;65.96;102949.38;5017735;28;20033;-90
2021/03/03 04:23:12;;;;;;;44.40;21.42;;;;;;;6.74;66.04;102951.16;5019980;28;20116;-90
2021/03/03 04:25:38;;;;;;;44.90;21.23;;;;;;;6.73;66.18;102949.38;5014760;28;20034;-89
2021/03/03 04:28:06;;;;;;;49.15;24.48;;;;;;;6.76;66.23;102959.97;5031126;28;20520;-90
2021/03/03 04:30:33;;;;;;;47.33;22.52;;;;;;;6.74;66.47;102958.16;4990596;28;20034;-90
2021/03/03 04:32:59;;;;;;;46.50;21.98;;;;;;;6.75;66.55;102957.31;5017613;28;20025;-90
2021/03/03 04:35:26;;;;;;;50.72;23.23;;;;;;;6.74;66.75;102961.69;5000209;28;20437;-90
2021/03/03 04:37:52;;;;;;;52.85;24.40;;;;;;;6.76;66.99;102959.97;5020064;28;20083;-90
2021/03/03 04:40:19;;;;;;;52.78;24.42;;;;;;;6.77;66.93;102956.50;5009333;28;20433;-89
2021/03/03 04:42:45;;;;;;;54.03;27.80;;;;;;;6.79;66.86;102948.63;5007111;28;20030;-89
2021/03/03 04:45:12;;;;;;;49.22;26.48;;;;;;;6.84;67.00;102956.69;5017344;28;20040;-89
2021/03/03 04:47:39;;;;;;;43.22;23.35;;;;;;;6.85;66.96;102950.56;5017288;28;20030;-88
2021/03/03 04:50:07;;;;;;;45.85;24.02;;;;;;;6.88;67.09;102955.91;5014788;28;20481;-88
2021/03/03 04:52:34;;;;;;;45.72;21.25;;;;;;;6.87;67.10;102952.41;5014783;28;20113;-90
2021/03/03 04:55:00;;;;;;;41.70;20.33;;;;;;;6.87;67.22;102948.88;5030004;28;20103;-89
2021/03/03 04:57:27;;;;;;;35.63;19.55;;;;;;;6.88;66.95;102948.00;5029428;28;20096;-90
2021/03/03 04:59:53;;;;;;;38.25;18.83;;;;;;;6.88;66.98;102946.28;5019846;28;20030;-88
2021/03/03 05:02:19;;;;;;;36.45;20.90;;;;;;;6.88;66.98;102945.38;5016279;28;20018;-89
2021/03/03 05:04:45;;;;;;;37.80;18.88;;;;;;;6.89;66.91;102937.53;5014316;28;20038;-90
2021/03/03 05:07:13;;;;;;;36.72;19.27;;;;;;;6.92;66.87;102945.53;5024656;28;20064;-90
2021/03/03 05:09:40;;;;;;;32.55;17.35;;;;;;;6.91;66.99;102942.84;5016786;28;20038;-88
2021/03/03 05:12:07;;;;;;;43.60;21.10;;;;;;;6.94;67.00;102929.75;5008496;28;20025;-90
2021/03/03 05:14:34;;;;;;;41.70;20.25;;;;;;;6.96;67.14;102930.69;5023183;28;20084;-89
2021/03/03 05:17:00;;;;;;;36.10;18.65;;;;;;;6.96;67.04;102925.41;4992141;28;20033;-89
2021/03/03 05:19:27;;;;;;;35.67;18.55;;;;;;;6.99;66.99;102930.78;5020351;28;20033;-90
2021/03/03 05:21:53;;;;;;;30.10;17.08;;;;;;;6.97;67.17;102932.47;5014211;28;20033;-82
2021/03/03 05:24:19;;;;;;;32.08;17.92;;;;;;;6.97;66.77;102932.47;5019903;28;20041;-89
2021/03/03 05:26:46;;;;;;;31.48;17.00;;;;;;;6.97;66.73;102924.56;5031757;28;20048;-89
2021/03/03 05:29:12;;;;;;;40.10;21.17;;;;;;;6.95;66.78;102928.91;5020947;28;20052;-90
2021/03/03 05:31:38;;;;;;;33.17;18.83;;;;;;;6.94;66.70;102927.09;5011669;28;20175;-90
2021/03/03 05:34:04;;;;;;;35.25;17.73;;;;;;;6.93;66.89;102933.25;5020425;28;20045;-90
2021/03/03 05:36:30;;;;;;;35.30;19.63;;;;;;;6.96;66.86;102935.97;4997625;28;20056;-90
2021/03/03 05:38:57;;;;;;;35.22;18.80;;;;;;;6.99;67.01;102928.16;5018370;28;20037;-90
2021/03/03 05:41:25;;;;;;;30.52;17.90;;;;;;;7.02;67.07;102933.50;5027668;28;20393;-91
2021/03/03 05:43:52;;;;;;;37.42;18.67;;;;;;;7.05;67.12;102936.25;5015316;28;20030;-90
2021/03/03 05:46:19;;;;;;;38.97;20.40;;;;;;;7.06;67.09;102922.19;5014007;28;20026;-90
2021/03/03 05:48:55;;;;;;;33.80;17.88;;;;;;;7.12;67.00;102919.72;5015972;28;20022;-90
2021/03/03 05:51:30;;;;;;;43.00;22.27;;;;;;;7.16;67.24;102922.47;5015437;28;20026;-90
2021/03/03 05:53:58;;;;;;;47.63;21.85;;;;;;;7.18;67.15;102921.66;5016671;28;20041;-90
2021/03/03 05:56:25;;;;;;;50.05;26.33;;;;;;;7.21;67.23;102915.56;5044023;28;20029;-89
2021/03/03 05:58:52;;;;;;;66.38;30.67;;;;;;;7.24;67.34;102919.19;5037174;28;20098;-90
2021/03/03 06:01:19;;;;;;;57.75;30.05;;;;;;;7.32;67.63;102929.06;4999938;28;20097;-89
2021/03/03 06:03:45;;;;;;;68.95;32.60;;;;;;;7.38;67.33;102924.81;5019125;28;20389;-89
2021/03/03 06:06:12;;;;;;;63.47;31.35;;;;;;;7.44;67.29;102925.00;5014486;28;20096;-89
2021/03/03 06:08:38;;;;;;;55.28;29.02;;;;;;;7.49;67.49;102932.13;5011346;28;20030;-89
2021/03/03 06:11:05;;;;;;;66.15;33.28;;;;;;;7.53;67.38;102932.25;5005244;28;20144;-89
2021/03/03 06:13:32;;;;;;;85.65;38.83;;;;;;;7.55;67.57;102929.66;5009774;28;20038;-90
2021/03/03 06:16:00;;;;;;;82.35;38.15;;;;;;;7.59;67.84;102940.31;5017787;28;20018;-89
2021/03/03 06:18:26;;;;;;;78.60;37.13;;;;;;;7.66;67.61;102951.91;5007347;28;20100;-87
2021/03/03 06:20:55;;;;;;;88.97;39.58;;;;;;;7.72;67.51;102945.91;5013085;28;20428;-90
2021/03/03 06:26:10;;;;;;;84.97;45.57;;;;;;;7.49;69.86;102943.59;5113043;27;20913;-89
2021/03/03 11:43:12;;;;;;;66.07;39.50;;;;;;;11.75;58.99;102961.75;4975199;22;3704367;-89
2021/03/03 11:45:38;;;;;;;69.47;42.70;;;;;;;11.82;59.27;102961.84;5071824;28;20348;-86
2021/03/03 11:48:13;;;;;;;65.85;39.53;;;;;;;12.00;58.91;102954.03;5061704;28;20111;-85
2021/03/03 11:50:39;;;;;;;61.85;38.17;;;;;;;11.97;58.65;102961.13;5067520;28;20483;-89
2021/03/03 11:53:06;;;;;;;63.58;37.88;;;;;;;12.06;58.70;102959.41;5064552;28;20017;-88
2021/03/03 11:55:32;;;;;;;71.07;41.28;;;;;;;12.05;58.40;102961.19;5070898;28;20112;-89
2021/03/03 11:58:04;;;;;;;76.60;44.03;;;;;;;12.14;58.08;102960.38;5073578;28;20062;-91
2021/03/03 12:00:30;;;;;;;67.60;39.78;;;;;;;12.22;58.27;102955.09;5075491;28;20028;-94
2021/03/03 12:08:06;;;;;;;65.47;38.05;;;;;;;12.36;57.19;102936.56;5078324;28;20045;-96
2021/03/03 12:10:34;;;;;;;64.20;37.53;;;;;;;12.44;57.27;102937.53;5088398;28;20025;-96
2021/03/03 12:13:10;;;;;;;67.35;38.97;;;;;;;12.50;57.39;102928.69;5079206;28;20027;-96
2021/03/03 12:15:36;;;;;;;64.80;38.83;;;;;;;12.50;57.24;102921.59;5079229;28;20032;-92
2021/03/03 12:18:03;;;;;;;65.30;38.75;;;;;;;12.66;57.51;102924.31;5071519;28;20070;-89
2021/03/03 12:20:29;;;;;;;63.97;38.50;;;;;;;12.73;56.88;102927.00;5075006;28;20036;-93
2021/03/03 12:23:05;;;;;;;56.80;33.40;;;;;;;12.93;57.19;102926.22;5075528;28;20028;-85
2021/03/03 12:25:31;;;;;;;60.60;36.08;;;;;;;12.87;56.96;102929.75;5072267;28;20111;-89
2021/03/03 12:28:20;;;;;;;65.38;37.45;;;;;;;13.07;56.17;102920.94;5067792;28;20036;-91
2021/03/03 12:30:47;;;;;;;62.72;37.67;;;;;;;13.04;55.94;102920.94;5072726;28;20170;-90
2021/03/03 12:33:22;;;;;;;59.72;36.03;;;;;;;13.16;55.97;102920.97;5075075;28;20036;-90
2021/03/03 12:35:48;;;;;;;69.57;39.05;;;;;;;13.21;55.63;102921.88;5075162;28;20060;-90
2021/03/03 12:38:14;;;;;;;63.47;37.22;;;;;;;13.18;54.99;102913.84;5075503;28;20032;-89
2021/03/03 12:40:41;;;;;;;62.92;35.72;;;;;;;13.34;54.74;102903.25;5074984;28;20025;-89
2021/03/03 12:43:08;;;;;;;64.60;37.20;;;;;;;13.27;55.04;102905.91;5074831;28;20029;-89
2021/03/03 12:45:34;;;;;;;59.22;35.75;;;;;;;13.42;54.91;102893.53;5074762;28;20035;-88
2021/03/03 12:48:00;;;;;;;66.45;34.40;;;;;;;13.53;55.26;102890.88;5074796;28;20035;-88
2021/03/03 12:50:27;;;;;;;55.47;32.78;;;;;;;13.56;54.77;102878.44;5074942;28;20028;-89
2021/03/03 12:52:53;;;;;;;56.75;34.78;;;;;;;13.75;54.87;102881.13;5074921;28;20032;-89
2021/03/03 12:55:19;;;;;;;61.40;33.25;;;;;;;13.89;54.80;102882.00;5075008;28;20067;-89
2021/03/03 12:57:45;;;;;;;61.47;35.47;;;;;;;13.91;54.57;102876.66;5074810;28;20039;-90
2021/03/03 13:00:12;;;;;;;62.80;37.30;;;;;;;14.01;54.13;102866.88;5074566;28;20479;-90
2021/03/03 13:02:39;;;;;;;66.75;36.75;;;;;;;14.06;54.26;102863.28;5074430;28;20036;-90
2021/03/03 13:05:06;;;;;;;64.95;36.67;;;;;;;14.10;53.85;102874.84;5074834;28;20490;-89
2021/03/03 13:07:33;;;;;;;64.18;36.20;;;;;;;14.15;53.87;102867.72;5074471;28;20036;-89
2021/03/03 13:09:59;;;;;;;56.78;35.55;;;;;;;14.29;53.60;102865.00;5074608;28;20142;-89
2021/03/03 13:14:57;;;;;;;66.40;37.87;;;;;;;14.43;52.91;102861.41;5053196;28;20045;-88
2021/03/03 13:17:23;;;;;;;61.28;35.33;;;;;;;14.47;52.87;102857.84;5055255;28;20111;-88
2021/03/03 13:19:49;;;;;;;66.30;36.65;;;;;;;14.46;52.68;102858.75;5054933;28;20028;-88
2021/03/03 13:22:15;;;;;;;61.70;37.60;;;;;;;14.43;52.84;102861.41;5054282;28;20060;-88
2021/03/03 13:24:41;;;;;;;70.55;37.63;;;;;;;14.54;52.63;102843.56;5054220;28;20034;-87
2021/03/03 13:27:08;;;;;;;65.22;37.20;;;;;;;14.57;52.84;102839.13;5054649;28;20029;-88
2021/03/03 13:29:34;;;;;;;62.85;37.45;;;;;;;14.65;52.84;102827.56;5054576;28;20025;-88
2021/03/03 13:32:00;;;;;;;69.13;39.00;;;;;;;14.73;52.24;102836.41;5054846;28;20391;-88
2021/03/03 13:34:27;;;;;;;62.75;37.00;;;;;;;14.71;52.18;102835.53;5054358;28;20033;-87
2021/03/03 13:36:53;;;;;;;67.18;37.72;;;;;;;14.61;52.14;102836.44;5060634;28;20033;-87
2021/03/03 13:39:20;;;;;;;64.65;37.45;;;;;;;14.57;52.25;102831.13;5054786;28;20436;-87
2021/03/03 13:41:46;;;;;;;62.33;36.95;;;;;;;14.61;51.97;102834.66;5054249;28;20021;-87
2021/03/03 13:44:12;;;;;;;66.75;39.10;;;;;;;14.59;51.96;102833.75;5054344;28;20111;-87
2021/03/03 13:46:39;;;;;;;63.85;39.17;;;;;;;14.56;51.80;102826.66;5054248;28;20037;-88
2021/03/03 13:49:05;;;;;;;72.20;39.75;;;;;;;14.45;52.07;102828.50;5054120;28;20036;-88
2021/03/03 13:51:31;;;;;;;63.38;37.90;;;;;;;14.53;51.95;102832.03;5053808;28;20117;-89
2021/03/03 13:53:58;;;;;;;59.28;36.20;;;;;;;14.58;51.67;102834.69;5055830;28;20052;-88
2021/03/03 13:56:24;;;;;;;68.05;36.15;;;;;;;14.56;51.86;102840.00;5054588;28;20033;-88
2021/03/03 13:58:50;;;;;;;61.83;36.70;;;;;;;14.44;51.66;102831.19;5058871;28;20549;-89
2021/03/03 14:01:16;;;;;;;64.63;36.30;;;;;;;14.57;51.31;102839.13;5057000;28;20033;-88
2021/03/03 14:03:42;;;;;;;64.15;37.65;;;;;;;14.75;51.37;102831.06;5056136;28;20086;-87
2021/03/03 14:06:09;;;;;;;61.47;37.83;;;;;;;14.76;51.33;102830.19;5055149;28;20388;-88
2021/03/03 14:08:35;;;;;;;62.92;38.60;;;;;;;14.62;51.06;102830.22;5056297;28;20464;-89
2021/03/03 14:11:01;;;;;;;64.97;38.30;;;;;;;14.79;51.22;102823.03;5056237;28;20052;-87
2021/03/03 14:13:27;;;;;;;66.97;40.45;;;;;;;14.69;50.87;102815.97;5057004;28;20174;-88
2021/03/03 14:15:53;;;;;;;68.28;40.10;;;;;;;14.67;50.90;102823.13;5053652;28;20123;-88
2021/03/03 14:18:20;;;;;;;64.88;36.95;;;;;;;14.52;51.37;102819.59;5053329;28;20036;-89
2021/03/03 14:20:46;;;;;;;68.40;38.53;;;;;;;14.55;51.31;102816.91;5053370;28;20033;-89
2021/03/03 14:23:12;;;;;;;68.32;38.50;;;;;;;14.63;51.47;102815.97;5053388;28;20380;-87
2021/03/03 14:25:38;;;;;;;66.20;39.25;;;;;;;14.72;51.32;102823.97;5056174;28;20029;-88
2021/03/03 14:28:05;;;;;;;66.72;39.40;;;;;;;14.74;51.02;102814.16;5055801;28;20068;-88
2021/03/03 14:30:31;;;;;;;65.65;39.17;;;;;;;14.75;50.85;102810.59;5057619;28;20053;-88
2021/03/03 14:32:57;;;;;;;67.18;37.80;;;;;;;14.68;51.04;102812.44;5054412;28;20079;-88
2021/03/03 14:35:23;;;;;;;69.70;39.35;;;;;;;14.71;50.86;102804.38;5055004;28;20029;-87
2021/03/03 14:37:49;;;;;;;69.15;38.40;;;;;;;14.76;50.72;102807.03;5054078;28;20120;-88
2021/03/03 14:40:19;;;;;;;64.93;38.80;;;;;;;14.69;51.07;102805.28;5053691;28;20365;-88
2021/03/03 14:42:45;;;;;;;66.60;38.95;;;;;;;14.75;50.58;102813.25;5060474;28;20037;-89
2021/03/03 14:45:12;;;;;;;69.38;38.78;;;;;;;14.69;50.82;102813.28;5056843;28;20132;-88
2021/03/03 14:47:38;;;;;;;71.78;40.67;;;;;;;14.71;50.64;102814.19;5056732;28;20051;-88
2021/03/03 14:50:05;;;;;;;70.45;37.75;;;;;;;14.62;51.14;102806.22;5056740;28;20082;-87
2021/03/03 14:52:32;;;;;;;63.35;37.10;;;;;;;14.74;51.30;102803.47;5054903;28;20025;-87
2021/03/03 14:54:58;;;;;;;66.75;36.55;;;;;;;14.86;51.09;102808.75;5053400;28;20373;-87
2021/03/03 14:57:25;;;;;;;60.97;35.75;;;;;;;14.97;50.98;102794.47;5055795;28;20376;-87
2021/03/03 14:59:51;;;;;;;63.10;35.33;;;;;;;15.01;50.91;102796.19;5061933;28;20550;-87
2021/03/03 15:02:19;;;;;;;70.15;35.75;;;;;;;15.07;50.95;102795.28;5057668;28;20029;-87
2021/03/03 15:04:46;;;;;;;65.45;37.08;;;;;;;15.06;50.73;102790.84;5057683;28;20504;-88
2021/03/03 15:07:12;;;;;;;60.40;34.72;;;;;;;15.03;50.90;102786.41;5058522;28;20124;-88
2021/03/03 15:09:39;;;;;;;61.70;34.05;;;;;;;14.94;50.88;102794.47;5057479;28;20071;-88
2021/03/03 15:12:06;;;;;;;68.00;34.65;;;;;;;14.75;50.88;102793.72;5057567;28;20037;-88
2021/03/03 15:14:33;;;;;;;66.68;35.10;;;;;;;14.72;50.93;102792.81;5057189;28;20400;-87
2021/03/03 15:16:59;;;;;;;67.65;33.47;;;;;;;14.63;51.02;102790.19;5056951;28;20120;-87
2021/03/03 15:19:26;;;;;;;65.03;34.30;;;;;;;14.50;51.28;102794.69;5058442;28;20480;-87
2021/03/03 15:21:52;;;;;;;64.45;33.80;;;;;;;14.37;51.15;102793.00;5057916;28;20490;-87
2021/03/03 15:24:18;;;;;;;70.35;34.63;;;;;;;14.22;51.53;102794.81;5060277;28;20056;-88
2021/03/03 15:26:44;;;;;;;70.60;36.70;;;;;;;14.14;51.93;102793.97;5060028;28;20033;-88
2021/03/03 15:29:10;;;;;;;67.28;35.58;;;;;;;14.13;51.59;102794.88;5057142;28;20144;-88
2021/03/03 15:31:37;;;;;;;72.20;37.00;;;;;;;14.10;52.05;102786.00;5058349;28;20480;-88
2021/03/03 15:34:03;;;;;;;68.85;35.90;;;;;;;14.03;52.22;102790.44;5057536;28;20033;-89
2021/03/03 15:36:29;;;;;;;67.82;35.30;;;;;;;14.00;52.10;102782.47;5057455;28;20021;-88
2021/03/03 15:38:55;;;;;;;67.90;33.80;;;;;;;13.80;52.00;102788.75;5057170;28;20029;-87
2021/03/03 15:41:21;;;;;;;66.05;34.00;;;;;;;13.76;52.08;102789.66;5058789;28;20029;-89
2021/03/03 15:43:48;;;;;;;64.00;33.95;;;;;;;13.73;51.96;102794.97;5057529;28;20040;-88
2021/03/03 15:46:14;;;;;;;70.43;33.53;;;;;;;13.56;52.62;102793.22;5059245;28;20037;-88
2021/03/03 15:48:40;;;;;;;69.82;34.70;;;;;;;13.46;52.54;102791.47;5058544;28;20152;-87
2021/03/03 15:51:06;;;;;;;73.07;34.40;;;;;;;13.41;52.52;102785.25;5056943;28;20407;-88
2021/03/03 15:53:32;;;;;;;77.53;34.75;;;;;;;13.22;53.17;102793.22;5055956;28;20025;-87
2021/03/03 15:55:59;;;;;;;73.68;36.20;;;;;;;13.12;53.19;102791.41;5055798;28;20438;-88
2021/03/03 15:58:26;;;;;;;72.63;35.47;;;;;;;12.99;53.14;102797.63;5057516;28;20025;-87
2021/03/03 16:00:52;;;;;;;82.43;38.67;;;;;;;12.94;53.04;102789.63;5057744;28;20033;-88
2021/03/03 16:03:18;;;;;;;81.25;36.10;;;;;;;12.71;53.70;102800.22;5057047;28;20104;-88
2021/03/03 16:05:44;;;;;;;84.05;37.92;;;;;;;12.62;53.97;102796.69;5056646;28;20033;-87
2021/03/03 16:08:11;;;;;;;78.32;35.30;;;;;;;12.54;54.32;102793.09;5059515;28;20033;-87
2021/03/03 16:10:37;;;;;;;80.72;36.17;;;;;;;12.44;54.21;102786.84;5062932;28;20040;-86
2021/03/03 16:13:03;;;;;;;83.93;37.63;;;;;;;12.34;54.31;102789.50;5057755;28;20074;-88
2021/03/03 16:15:29;;;;;;;90.75;37.58;;;;;;;12.17;54.97;102792.94;5058881;28;20456;-86
2021/03/03 16:17:56;;;;;;;89.90;37.80;;;;;;;12.01;54.97;102785.78;5058318;28;20448;-88
2021/03/03 16:20:22;;;;;;;93.10;38.10;;;;;;;11.67;55.29;102791.75;5057752;28;20471;-87
2021/03/03 16:22:48;;;;;;;101.82;40.38;;;;;;;11.50;56.07;102794.28;5056358;28;20033;-87
2021/03/03 16:25:15;;;;;;;94.90;39.97;;;;;;;11.50;56.05;102786.31;5057038;28;20033;-87
2021/03/03 16:27:41;;;;;;;104.78;41.42;;;;;;;11.42;56.05;102796.00;5056025;28;20029;-87
2021/03/03 16:30:10;;;;;;;92.68;37.72;;;;;;;11.08;57.27;102798.34;5056455;28;20104;-87
2021/03/03 16:32:36;;;;;;;99.70;40.75;;;;;;;10.97;57.20;102804.44;5056025;28;20043;-87
2021/03/03 16:35:04;;;;;;;90.55;37.90;;;;;;;10.84;57.55;102798.16;5053947;28;20025;-88
2021/03/03 16:37:30;;;;;;;92.72;38.83;;;;;;;10.67;57.82;102800.59;5055318;28;20033;-87
2021/03/03 16:39:58;;;;;;;96.30;39.35;;;;;;;10.56;58.09;102796.94;5054322;28;20115;-87
2021/03/03 16:42:24;;;;;;;90.53;37.75;;;;;;;10.41;58.37;102791.47;5055353;28;20029;-87